createdAt,value
2017-09-17T00:00:24.968Z,29.33
2017-09-17T00:02:53.512Z,28.90
2017-09-17T00:05:21.519Z,33.07
2017-09-17T00:07:49.045Z,22.90
2017-09-17T00:10:16.792Z,21.40
2017-09-17T00:12:44.312Z,23.07
2017-09-17T00:15:11.817Z,26.17
2017-09-17T00:17:39.342Z,24.63
2017-09-17T00:20:06.857Z,20.73
2017-09-17T00:22:34.373Z,19.27
2017-09-17T00:25:01.904Z,24.83
2017-09-17T00:27:29.436Z,25.67
2017-09-17T00:29:57.997Z,18.90
2017-09-17T00:32:26.088Z,18.10
2017-09-17T00:34:53.791Z,17.80
2017-09-17T00:37:21.309Z,18.13
2017-09-17T00:39:48.834Z,20.77
2017-09-17T00:42:16.447Z,29.50
2017-09-17T00:44:44.083Z,19.03
2017-09-17T00:47:11.705Z,19.03
2017-09-17T00:49:39.489Z,21.90
2017-09-17T00:52:06.991Z,19.27
2017-09-17T00:54:34.696Z,27.93
2017-09-17T00:57:02.205Z,24.03
2017-09-17T00:59:29.725Z,27.13
2017-09-17T01:04:31.332Z,22.73
2017-09-17T01:06:59.073Z,20.30
2017-09-17T01:09:26.579Z,20.50
2017-09-17T01:11:54.100Z,22.20
2017-09-17T01:14:22.384Z,28.37
2017-09-17T01:16:49.925Z,22.80
2017-09-17T01:19:17.428Z,21.03
2017-09-17T01:21:45.016Z,19.83
2017-09-17T01:24:12.528Z,20.23
2017-09-17T01:26:40.041Z,28.90
2017-09-17T01:29:07.701Z,25.00
2017-09-17T01:31:35.464Z,25.80
2017-09-17T01:34:02.984Z,24.40
2017-09-17T01:36:30.528Z,30.93
2017-09-17T01:38:58.045Z,23.67
2017-09-17T01:41:25.582Z,19.40
2017-09-17T01:43:53.113Z,17.53
2017-09-17T01:46:20.608Z,26.37
2017-09-17T01:48:48.171Z,25.83
2017-09-17T01:51:15.898Z,22.73
2017-09-17T01:53:43.409Z,20.40
2017-09-17T01:56:10.947Z,30.30
2017-09-17T01:58:38.472Z,23.37
2017-09-17T02:01:05.979Z,19.00
2017-09-17T02:03:33.658Z,19.30
2017-09-17T02:06:01.384Z,22.53
2017-09-17T02:08:29.633Z,22.10
2017-09-17T02:10:57.222Z,23.80
2017-09-17T02:13:24.980Z,20.67
2017-09-17T02:15:52.488Z,23.23
2017-09-17T02:18:20.160Z,20.40
2017-09-17T02:20:47.684Z,22.80
2017-09-17T02:23:15.411Z,21.33
2017-09-17T02:25:42.933Z,23.90
2017-09-17T02:28:10.599Z,19.77
2017-09-17T02:30:38.117Z,24.43
2017-09-17T02:33:05.829Z,20.63
2017-09-17T02:35:33.345Z,19.70
2017-09-17T02:38:01.074Z,21.37
2017-09-17T02:40:28.595Z,17.17
2017-09-17T02:42:56.168Z,22.67
2017-09-17T02:45:23.689Z,16.27
2017-09-17T02:47:51.209Z,20.47
2017-09-17T02:50:18.970Z,17.10
2017-09-17T02:52:46.492Z,21.03
2017-09-17T02:55:14.169Z,21.70
2017-09-17T02:57:41.692Z,20.53
2017-09-17T03:00:09.201Z,22.27
2017-09-17T03:02:36.728Z,20.33
2017-09-17T03:05:04.241Z,19.70
2017-09-17T03:07:31.756Z,20.53
2017-09-17T03:09:59.266Z,18.10
2017-09-17T03:12:26.984Z,18.90
2017-09-17T03:14:54.508Z,15.90
2017-09-17T03:17:22.790Z,17.17
2017-09-17T03:19:50.600Z,14.47
2017-09-17T03:22:18.137Z,20.90
2017-09-17T03:24:45.641Z,20.93
2017-09-17T03:27:13.288Z,17.97
2017-09-17T03:29:41.040Z,16.63
2017-09-17T03:32:08.573Z,15.50
2017-09-17T03:34:36.244Z,18.77
2017-09-17T03:37:03.797Z,16.00
2017-09-17T03:39:31.407Z,17.70
2017-09-17T03:41:58.942Z,15.83
2017-09-17T03:44:26.697Z,14.90
2017-09-17T03:46:54.480Z,14.57
2017-09-17T03:49:22.263Z,19.83
2017-09-17T03:51:49.772Z,17.30
2017-09-17T03:54:17.284Z,12.93
2017-09-17T03:56:45.559Z,14.83
2017-09-17T03:59:13.261Z,16.90
2017-09-17T04:01:40.801Z,17.70
2017-09-17T04:04:08.550Z,15.73
2017-09-17T04:06:36.847Z,20.10
2017-09-17T04:09:04.352Z,14.30
2017-09-17T04:11:32.232Z,21.20
2017-09-17T04:13:59.736Z,18.43
2017-09-17T04:16:27.260Z,14.80
2017-09-17T04:18:54.774Z,13.60
2017-09-17T04:21:22.288Z,13.90
2017-09-17T04:23:49.804Z,14.63
2017-09-17T04:26:17.457Z,15.13
2017-09-17T04:28:45.222Z,13.47
2017-09-17T04:31:13.365Z,15.10
2017-09-17T04:33:40.882Z,13.83
2017-09-17T04:36:08.396Z,20.10
2017-09-17T04:38:37.207Z,13.17
2017-09-17T04:41:04.712Z,16.20
2017-09-17T04:43:32.287Z,11.93
2017-09-17T04:45:59.813Z,19.47
2017-09-17T04:48:27.467Z,13.50
2017-09-17T04:50:56.027Z,18.20
2017-09-17T04:53:24.176Z,16.97
2017-09-17T04:55:51.844Z,15.50
2017-09-17T04:58:19.592Z,21.83
2017-09-17T05:00:47.221Z,13.23
2017-09-17T05:03:14.760Z,21.80
2017-09-17T05:05:42.311Z,14.40
2017-09-17T05:08:09.892Z,16.80
2017-09-17T05:10:38.829Z,21.33
2017-09-17T05:13:06.496Z,21.47
2017-09-17T05:15:34.004Z,19.20
2017-09-17T05:18:01.633Z,15.40
2017-09-17T05:20:29.161Z,21.40
2017-09-17T05:22:56.671Z,16.97
2017-09-17T05:25:24.197Z,18.93
2017-09-17T05:27:51.745Z,15.13
2017-09-17T05:30:19.311Z,20.20
2017-09-17T05:32:46.840Z,14.33
2017-09-17T05:35:14.339Z,19.13
2017-09-17T05:37:41.856Z,14.33
2017-09-17T05:40:09.368Z,19.17
2017-09-17T05:42:36.891Z,16.73
2017-09-17T05:45:04.656Z,15.60
2017-09-17T05:47:32.880Z,16.47
2017-09-17T05:50:01.172Z,16.87
2017-09-17T05:52:28.868Z,18.60
2017-09-17T05:54:56.635Z,17.03
2017-09-17T05:57:24.401Z,19.80
2017-09-17T05:59:52.169Z,18.23
2017-09-17T06:02:19.928Z,21.23
2017-09-17T06:04:47.464Z,26.40
2017-09-17T06:07:14.972Z,17.17
2017-09-17T06:09:42.569Z,23.60
2017-09-17T06:12:10.788Z,14.83
2017-09-17T06:14:38.305Z,22.40
2017-09-17T06:17:05.868Z,23.87
2017-09-17T06:19:33.588Z,20.20
2017-09-17T06:22:01.113Z,23.00
2017-09-17T06:24:28.921Z,22.60
2017-09-17T06:26:56.542Z,26.93
2017-09-17T06:29:24.286Z,16.00
2017-09-17T06:31:51.835Z,21.80
2017-09-17T06:34:19.477Z,18.50
2017-09-17T06:36:47.090Z,18.77
2017-09-17T06:39:14.821Z,16.60
2017-09-17T06:41:42.541Z,18.90
2017-09-17T06:44:10.060Z,16.27
2017-09-17T06:46:37.589Z,17.20
2017-09-17T06:49:05.108Z,15.27
2017-09-17T06:51:32.751Z,17.00
2017-09-17T06:54:00.270Z,23.63
2017-09-17T06:56:27.949Z,17.60
2017-09-17T06:58:55.464Z,22.40
2017-09-17T07:01:22.981Z,15.00
2017-09-17T07:03:50.496Z,30.03
2017-09-17T07:06:18.005Z,20.53
2017-09-17T07:08:45.521Z,12.03
2017-09-17T07:11:13.032Z,14.50
2017-09-17T07:13:40.542Z,15.90
2017-09-17T07:16:08.183Z,13.03
2017-09-17T07:18:35.704Z,12.57
2017-09-17T07:21:03.437Z,18.60
2017-09-17T07:23:30.984Z,19.67
2017-09-17T07:25:58.671Z,13.10
2017-09-17T07:28:26.202Z,16.90
2017-09-17T07:30:53.871Z,15.70
2017-09-17T07:33:22.404Z,13.80
2017-09-17T07:35:50.955Z,11.67
2017-09-17T07:38:18.469Z,27.20
2017-09-17T07:40:46.868Z,19.03
2017-09-17T07:43:14.530Z,20.17
2017-09-17T07:45:42.048Z,17.57
2017-09-17T07:48:10.311Z,21.27
2017-09-17T07:50:38.766Z,14.80
2017-09-17T07:53:06.530Z,21.47
2017-09-17T07:55:34.298Z,12.87
2017-09-17T07:58:01.817Z,18.60
2017-09-17T08:00:29.333Z,20.50
2017-09-17T08:02:56.964Z,13.37
2017-09-17T08:05:24.494Z,19.83
2017-09-17T08:07:52.007Z,15.93
2017-09-17T08:10:19.537Z,25.20
2017-09-17T08:12:47.600Z,19.30
2017-09-17T08:15:15.123Z,18.97
2017-09-17T08:17:42.938Z,12.13
2017-09-17T08:20:10.445Z,16.13
2017-09-17T08:22:38.143Z,27.33
2017-09-17T08:25:05.658Z,16.20
2017-09-17T08:27:33.352Z,15.70
2017-09-17T08:30:01.138Z,11.77
2017-09-17T08:32:28.900Z,14.53
2017-09-17T08:34:56.409Z,18.90
2017-09-17T08:37:23.946Z,16.00
2017-09-17T08:39:51.585Z,13.57
2017-09-17T08:42:19.462Z,18.97
2017-09-17T08:44:46.957Z,14.20
2017-09-17T08:47:15.496Z,17.07
2017-09-17T08:49:43.248Z,21.00
2017-09-17T08:52:10.785Z,25.20
2017-09-17T08:54:38.293Z,17.00
2017-09-17T08:57:05.800Z,23.03
2017-09-17T08:59:33.308Z,22.43
2017-09-17T09:02:01.584Z,18.57
2017-09-17T09:04:29.223Z,24.47
2017-09-17T09:06:56.752Z,27.57
2017-09-17T09:09:24.413Z,26.00
2017-09-17T09:11:51.920Z,24.57
2017-09-17T09:14:19.444Z,44.83
2017-09-17T09:16:46.959Z,32.53
2017-09-17T09:19:14.539Z,42.40
2017-09-17T09:21:42.056Z,26.07
2017-09-17T09:24:09.580Z,13.23
2017-09-17T09:26:37.240Z,11.47
2017-09-17T09:29:05.003Z,14.83
2017-09-17T09:31:32.515Z,19.23
2017-09-17T09:34:00.033Z,16.80
2017-09-17T09:36:27.557Z,15.30
2017-09-17T09:38:55.469Z,13.17
2017-09-17T09:41:22.982Z,13.37
2017-09-17T09:43:50.480Z,8.47
2017-09-17T09:46:18.126Z,15.37
2017-09-17T09:48:45.890Z,11.13
2017-09-17T09:51:13.396Z,8.73
2017-09-17T09:53:41.117Z,9.63
2017-09-17T09:56:08.880Z,10.00
2017-09-17T09:58:36.371Z,12.10
2017-09-17T10:01:04.098Z,11.00
2017-09-17T10:03:31.628Z,13.20
2017-09-17T10:05:59.271Z,9.77
2017-09-17T10:08:27.067Z,16.23
2017-09-17T10:10:54.575Z,12.00
2017-09-17T10:13:22.296Z,8.70
2017-09-17T10:15:49.811Z,12.90
2017-09-17T10:18:17.340Z,15.07
2017-09-17T10:20:45.892Z,9.10
2017-09-17T10:23:13.654Z,11.33
2017-09-17T10:25:41.218Z,15.10
2017-09-17T10:28:08.849Z,9.23
2017-09-17T10:30:36.651Z,9.93
2017-09-17T10:33:04.176Z,12.60
2017-09-17T10:35:31.871Z,11.77
2017-09-17T10:37:59.497Z,12.50
2017-09-17T10:40:27.043Z,8.70
2017-09-17T10:42:55.473Z,12.07
2017-09-17T10:45:22.964Z,17.03
2017-09-17T10:47:50.485Z,13.00
2017-09-17T10:50:18.001Z,12.47
2017-09-17T10:52:45.598Z,18.43
2017-09-17T10:55:13.117Z,15.60
2017-09-17T10:57:40.624Z,12.13
2017-09-17T11:00:08.240Z,10.90
2017-09-17T11:02:35.736Z,10.80
2017-09-17T11:05:03.257Z,12.50
2017-09-17T11:07:30.945Z,12.60
2017-09-17T11:09:58.459Z,8.67
2017-09-17T11:12:26.175Z,13.30
2017-09-17T11:14:53.839Z,12.27
2017-09-17T11:17:21.351Z,11.27
2017-09-17T11:19:48.857Z,11.40
2017-09-17T11:22:16.366Z,14.83
2017-09-17T11:24:44.058Z,11.00
2017-09-17T11:27:11.825Z,10.90
2017-09-17T11:29:39.327Z,9.83
2017-09-17T11:32:07.051Z,10.87
2017-09-17T11:34:34.578Z,11.70
2017-09-17T11:37:02.269Z,9.03
2017-09-17T11:39:29.985Z,13.50
2017-09-17T11:41:57.492Z,10.83
2017-09-17T11:44:25.017Z,9.73
2017-09-17T11:46:52.699Z,9.03
2017-09-17T11:49:20.281Z,10.50
2017-09-17T11:51:47.908Z,10.10
2017-09-17T11:54:15.403Z,11.60
2017-09-17T11:56:43.143Z,6.23
2017-09-17T11:59:10.877Z,6.67
2017-09-17T12:01:38.395Z,8.10
2017-09-17T12:04:06.104Z,4.70
2017-09-17T12:06:33.719Z,12.10
2017-09-17T12:09:02.288Z,5.70
2017-09-17T12:11:29.825Z,10.23
2017-09-17T12:13:57.453Z,5.40
2017-09-17T12:16:25.001Z,6.27
2017-09-17T12:18:54.027Z,3.53
2017-09-17T12:21:21.552Z,9.33
2017-09-17T12:23:49.865Z,9.63
2017-09-17T12:26:17.361Z,6.70
2017-09-17T12:28:44.900Z,8.10
2017-09-17T12:31:12.460Z,5.83
2017-09-17T12:33:40.228Z,5.90
2017-09-17T12:36:07.770Z,9.47
2017-09-17T12:38:35.265Z,7.73
2017-09-17T12:41:03.560Z,4.80
2017-09-17T12:43:31.082Z,5.77
2017-09-17T12:45:58.600Z,4.60
2017-09-17T12:48:26.116Z,6.33
2017-09-17T12:50:53.624Z,12.33
2017-09-17T12:53:21.177Z,6.20
2017-09-17T12:55:48.818Z,11.73
2017-09-17T12:58:16.308Z,5.20
2017-09-17T13:00:43.820Z,11.10
2017-09-17T13:03:11.346Z,6.07
2017-09-17T13:05:38.967Z,13.80
2017-09-17T13:08:06.789Z,9.00
2017-09-17T13:10:34.330Z,13.73
2017-09-17T13:13:01.996Z,13.07
2017-09-17T13:15:29.736Z,15.97
2017-09-17T13:17:57.272Z,9.17
2017-09-17T13:20:24.920Z,7.57
2017-09-17T13:22:52.653Z,10.17
2017-09-17T13:25:20.209Z,12.73
2017-09-17T13:27:47.719Z,10.47
2017-09-17T13:30:15.224Z,13.40
2017-09-17T13:32:42.756Z,13.13
2017-09-17T13:35:10.272Z,8.20
2017-09-17T13:37:38.090Z,10.13
2017-09-17T13:40:05.611Z,6.43
2017-09-17T13:42:33.781Z,8.73
2017-09-17T13:45:01.398Z,13.20
2017-09-17T13:47:29.101Z,4.70
2017-09-17T13:49:56.596Z,6.77
2017-09-17T13:52:24.100Z,9.70
2017-09-17T13:54:51.614Z,8.27
2017-09-17T13:57:19.119Z,8.40
2017-09-17T13:59:58.336Z,19.13
2017-09-17T14:02:35.756Z,8.90
2017-09-17T14:05:20.280Z,9.07
2017-09-17T14:07:50.264Z,15.47
2017-09-17T14:10:17.762Z,12.30
2017-09-17T14:12:45.265Z,12.43
2017-09-17T14:15:13.108Z,13.63
2017-09-17T14:17:40.705Z,11.07
2017-09-17T14:20:08.219Z,13.47
2017-09-17T14:22:35.735Z,7.00
2017-09-17T14:25:03.248Z,13.03
2017-09-17T14:27:30.755Z,7.07
2017-09-17T14:29:58.314Z,8.33
2017-09-17T14:32:25.814Z,9.00
2017-09-17T14:34:53.484Z,11.27
2017-09-17T14:37:20.988Z,9.97
2017-09-17T14:39:48.490Z,8.20
2017-09-17T14:42:16.011Z,6.87
2017-09-17T14:44:44.559Z,9.40
2017-09-17T14:47:12.057Z,7.13
2017-09-17T14:49:39.795Z,16.07
2017-09-17T14:52:08.130Z,10.63
2017-09-17T14:54:35.638Z,8.30
2017-09-17T14:57:03.452Z,8.27
2017-09-17T14:59:30.971Z,14.20
2017-09-17T15:01:59.259Z,9.33
2017-09-17T15:04:26.757Z,8.13
2017-09-17T15:06:54.398Z,7.87
2017-09-17T15:09:22.267Z,7.73
2017-09-17T15:11:49.964Z,6.83
2017-09-17T15:14:17.729Z,8.53
2017-09-17T15:16:45.257Z,9.47
2017-09-17T15:19:12.751Z,9.87
2017-09-17T15:21:40.256Z,7.30
2017-09-17T15:24:07.761Z,7.00
2017-09-17T15:26:35.308Z,10.07
2017-09-17T15:29:02.813Z,10.20
2017-09-17T15:31:30.488Z,10.40
2017-09-17T15:33:58.294Z,9.03
2017-09-17T15:36:25.792Z,12.60
2017-09-17T15:38:53.511Z,12.87
2017-09-17T15:41:21.019Z,8.60
2017-09-17T15:43:48.554Z,9.60
2017-09-17T15:46:16.196Z,11.60
2017-09-17T15:48:43.832Z,13.23
2017-09-17T15:51:11.410Z,15.70
2017-09-17T15:53:38.924Z,14.97
2017-09-17T15:56:06.653Z,14.37
2017-09-17T15:58:34.172Z,12.40
2017-09-17T16:01:01.895Z,8.00
2017-09-17T16:03:29.616Z,11.77
2017-09-17T16:05:57.134Z,10.17
2017-09-17T16:08:24.829Z,20.43
2017-09-17T16:10:52.775Z,9.17
2017-09-17T16:13:20.353Z,7.97
2017-09-17T16:15:48.372Z,11.67
2017-09-17T16:18:15.873Z,8.87
2017-09-17T16:20:43.648Z,7.07
2017-09-17T16:23:11.376Z,12.77
2017-09-17T16:25:38.890Z,38.83
2017-09-17T16:28:06.643Z,24.93
2017-09-17T16:30:34.169Z,14.77
2017-09-17T16:33:01.853Z,9.50
2017-09-17T16:35:29.517Z,12.00
2017-09-17T16:37:57.084Z,12.73
2017-09-17T16:40:24.608Z,9.23
2017-09-17T16:42:52.300Z,13.07
2017-09-17T16:45:19.821Z,12.33
2017-09-17T16:47:47.797Z,10.73
2017-09-17T16:50:15.585Z,13.47
2017-09-17T16:52:43.168Z,10.97
2017-09-17T16:55:11.068Z,15.13
2017-09-17T16:57:38.580Z,13.97
2017-09-17T17:00:06.105Z,21.53
2017-09-17T17:02:33.628Z,13.67
2017-09-17T17:05:01.240Z,14.83
2017-09-17T17:07:29.036Z,15.50
2017-09-17T17:09:56.778Z,16.07
2017-09-17T17:12:24.306Z,15.03
2017-09-17T17:14:51.812Z,17.00
2017-09-17T17:17:19.333Z,11.87
2017-09-17T17:19:46.836Z,12.77
2017-09-17T17:22:14.670Z,15.43
2017-09-17T17:24:42.180Z,17.80
2017-09-17T17:27:09.701Z,14.13
2017-09-17T17:29:37.208Z,17.87
2017-09-17T17:32:04.742Z,23.33
2017-09-17T17:34:32.248Z,13.03
2017-09-17T17:36:59.761Z,15.23
2017-09-17T17:39:27.457Z,13.13
2017-09-17T17:41:54.969Z,16.20
2017-09-17T17:44:22.897Z,12.43
2017-09-17T17:46:50.386Z,12.40
2017-09-17T17:49:17.901Z,9.77
2017-09-17T17:51:45.636Z,12.03
2017-09-17T17:54:13.149Z,11.40
2017-09-17T17:56:40.655Z,17.23
2017-09-17T17:59:08.355Z,12.43
2017-09-17T18:01:35.864Z,13.60
2017-09-17T18:04:03.756Z,12.60
2017-09-17T18:06:31.316Z,14.03
2017-09-17T18:08:58.817Z,11.40
2017-09-17T18:11:26.332Z,15.30
2017-09-17T18:13:53.829Z,14.90
2017-09-17T18:16:21.500Z,11.77
2017-09-17T18:18:49.043Z,22.00
2017-09-17T18:21:16.707Z,33.47
2017-09-17T18:23:44.425Z,13.43
2017-09-17T18:26:11.948Z,16.97
2017-09-17T18:28:39.458Z,18.03
2017-09-17T18:31:07.141Z,10.47
2017-09-17T18:33:34.677Z,11.00
2017-09-17T18:36:02.188Z,9.60
2017-09-17T18:38:30.455Z,11.17
2017-09-17T18:40:57.985Z,9.67
2017-09-17T18:43:25.488Z,9.83
2017-09-17T18:45:53.794Z,7.90
2017-09-17T18:48:21.478Z,16.20
2017-09-17T18:50:54.935Z,15.67
2017-09-17T18:53:22.544Z,12.13
2017-09-17T18:55:50.308Z,12.73
2017-09-17T18:58:17.821Z,17.93
2017-09-17T19:00:45.532Z,14.60
2017-09-17T19:03:13.049Z,16.30
2017-09-17T19:05:40.765Z,11.17
2017-09-17T19:08:08.514Z,11.50
2017-09-17T19:10:36.273Z,15.63
2017-09-17T19:13:04.596Z,15.83
2017-09-17T19:15:32.112Z,11.50
2017-09-17T19:17:59.613Z,10.57
2017-09-17T19:20:27.133Z,8.70
2017-09-17T19:22:54.757Z,13.67
2017-09-17T19:25:22.528Z,8.60
2017-09-17T19:27:50.036Z,9.97
2017-09-17T19:30:17.557Z,12.33
2017-09-17T19:32:45.227Z,11.27
2017-09-17T19:35:12.732Z,18.47
2017-09-17T19:37:40.235Z,9.50
2017-09-17T19:40:07.772Z,14.30
2017-09-17T19:42:35.270Z,14.70
2017-09-17T19:45:02.813Z,22.07
2017-09-17T19:47:30.332Z,22.23
2017-09-17T19:49:58.004Z,22.40
2017-09-17T19:52:25.519Z,18.70
2017-09-17T19:54:53.274Z,19.40
2017-09-17T19:57:20.768Z,20.50
2017-09-17T19:59:48.474Z,18.47
2017-09-17T20:02:16.005Z,15.03
2017-09-17T20:04:43.666Z,15.63
2017-09-17T20:07:11.448Z,12.90
2017-09-17T20:09:39.089Z,17.27
2017-09-17T20:12:06.672Z,18.83
2017-09-17T20:14:34.211Z,13.13
2017-09-17T20:17:01.755Z,17.93
2017-09-17T20:19:29.365Z,11.70
2017-09-17T20:21:56.887Z,12.97
2017-09-17T20:24:24.550Z,14.73
2017-09-17T20:26:52.221Z,18.40
2017-09-17T20:29:19.773Z,14.80
2017-09-17T20:31:47.426Z,13.67
2017-09-17T20:34:14.919Z,15.47
2017-09-17T20:36:42.442Z,18.40
2017-09-17T20:39:09.953Z,16.50
2017-09-17T20:41:37.471Z,14.43
2017-09-17T20:44:05.083Z,23.63
2017-09-17T20:46:32.604Z,17.90
2017-09-17T20:49:00.120Z,13.67
2017-09-17T20:51:27.632Z,15.43
2017-09-17T20:53:55.147Z,15.17
2017-09-17T20:56:22.657Z,13.20
2017-09-17T20:58:50.177Z,13.20
2017-09-17T21:01:17.701Z,15.37
2017-09-17T21:03:45.225Z,16.43
2017-09-17T21:06:12.762Z,14.20
2017-09-17T21:08:40.277Z,15.40
2017-09-17T21:11:07.809Z,16.00
2017-09-17T21:13:35.325Z,17.00
2017-09-17T21:16:02.839Z,12.90
2017-09-17T21:18:31.132Z,14.00
2017-09-17T21:20:58.827Z,15.40
2017-09-17T21:23:26.596Z,13.27
2017-09-17T21:25:54.395Z,13.93
2017-09-17T21:28:21.903Z,18.87
2017-09-17T21:30:49.585Z,15.40
2017-09-17T21:33:17.100Z,13.70
2017-09-17T21:35:44.800Z,15.57
2017-09-17T21:38:12.438Z,16.40
2017-09-17T21:40:40.024Z,17.50
2017-09-17T21:43:07.549Z,16.90
2017-09-17T21:45:35.249Z,13.97
2017-09-17T21:48:02.782Z,17.77
2017-09-17T21:50:32.019Z,17.10
2017-09-17T21:53:00.622Z,16.80
2017-09-17T21:55:28.144Z,18.17
2017-09-17T21:57:56.082Z,12.27
2017-09-17T22:00:23.809Z,31.10
2017-09-17T22:02:52.223Z,21.33
2017-09-17T22:05:19.720Z,19.90
2017-09-17T22:07:48.009Z,27.43
2017-09-17T22:10:15.516Z,17.27
2017-09-17T22:12:43.095Z,15.83
2017-09-17T22:15:10.606Z,18.20
2017-09-17T22:17:39.216Z,18.03
2017-09-17T22:20:07.013Z,20.30
2017-09-17T22:22:34.524Z,13.20
2017-09-17T22:25:02.091Z,11.90
2017-09-17T22:27:29.708Z,14.83
2017-09-17T22:29:57.315Z,12.90
2017-09-17T22:32:24.868Z,9.07
2017-09-17T22:34:52.667Z,13.07
2017-09-17T22:37:20.297Z,13.90
2017-09-17T22:39:48.858Z,10.80
2017-09-17T22:42:16.364Z,16.63
2017-09-17T22:44:43.993Z,15.80
2017-09-17T22:47:11.801Z,10.90
2017-09-17T22:49:39.304Z,9.80
2017-09-17T22:52:06.873Z,14.23
2017-09-17T22:54:34.643Z,11.40
2017-09-17T22:57:02.136Z,14.93
2017-09-17T22:59:29.648Z,11.20
2017-09-17T23:01:57.160Z,9.33
2017-09-17T23:04:24.676Z,9.80
2017-09-17T23:06:52.334Z,16.37
2017-09-17T23:09:20.124Z,8.17
2017-09-17T23:11:47.644Z,9.10
2017-09-17T23:14:15.154Z,11.50
2017-09-17T23:16:42.673Z,10.77
2017-09-17T23:19:10.165Z,11.90
2017-09-17T23:21:37.708Z,10.00
2017-09-17T23:24:05.219Z,11.10
2017-09-17T23:26:32.736Z,9.40
2017-09-17T23:29:00.485Z,15.67
2017-09-17T23:31:27.991Z,10.27
2017-09-17T23:33:56.261Z,14.43
2017-09-17T23:36:23.971Z,12.07
2017-09-17T23:38:51.765Z,15.47
2017-09-17T23:41:19.291Z,9.80
2017-09-17T23:43:46.800Z,10.57
2017-09-17T23:46:14.306Z,9.30
2017-09-17T23:48:41.855Z,9.83
2017-09-17T23:51:09.655Z,9.07
2017-09-17T23:53:42.761Z,11.20
2017-09-17T23:56:10.376Z,8.53
2017-09-17T23:58:37.890Z,7.57
